sensor_id;sensor_type;location;lat;lon;timestamp;temperature;humidity
2363;DHT22;64265;51.664;7.626;2023-02-28T00:00:27;20.70;70.80
2363;DHT22;64265;51.664;7.626;2023-02-28T00:02:55;20.70;70.90
2363;DHT22;64265;51.664;7.626;2023-02-28T00:05:23;20.60;70.80
2363;DHT22;64265;51.664;7.626;2023-02-28T00:07:51;20.60;70.80
2363;DHT22;64265;51.664;7.626;2023-02-28T00:10:20;20.60;71.60
2363;DHT22;64265;51.664;7.626;2023-02-28T00:12:48;20.60;70.80
2363;DHT22;64265;51.664;7.626;2023-02-28T00:15:15;20.60;70.70
2363;DHT22;64265;51.664;7.626;2023-02-28T00:17:42;20.60;70.80
2363;DHT22;64265;51.664;7.626;2023-02-28T00:20:11;20.60;70.70
2363;DHT22;64265;51.664;7.626;2023-02-28T00:22:39;20.60;70.70
2363;DHT22;64265;51.664;7.626;2023-02-28T00:25:08;20.60;70.60
2363;DHT22;64265;51.664;7.626;2023-02-28T00:27:35;20.50;70.40
2363;DHT22;64265;51.664;7.626;2023-02-28T00:30:02;20.50;70.40
2363;DHT22;64265;51.664;7.626;2023-02-28T00:32:29;20.50;70.40
2363;DHT22;64265;51.664;7.626;2023-02-28T00:34:56;20.50;70.40
2363;DHT22;64265;51.664;7.626;2023-02-28T00:37:24;20.50;70.40
2363;DHT22;64265;51.664;7.626;2023-02-28T00:39:51;20.50;71.20
2363;DHT22;64265;51.664;7.626;2023-02-28T00:42:17;20.50;70.40
2363;DHT22;64265;51.664;7.626;2023-02-28T00:44:44;20.50;70.30
2363;DHT22;64265;51.664;7.626;2023-02-28T00:47:11;20.50;70.30
2363;DHT22;64265;51.664;7.626;2023-02-28T00:49:37;20.50;70.30
2363;DHT22;64265;51.664;7.626;2023-02-28T00:52:04;20.50;70.30
2363;DHT22;64265;51.664;7.626;2023-02-28T00:54:32;20.50;70.20
2363;DHT22;64265;51.664;7.626;2023-02-28T00:56:59;20.50;70.20
2363;DHT22;64265;51.664;7.626;2023-02-28T00:59:26;20.50;70.20
2363;DHT22;64265;51.664;7.626;2023-02-28T01:01:52;20.50;70.20
2363;DHT22;64265;51.664;7.626;2023-02-28T01:04:19;20.50;70.20
2363;DHT22;64265;51.664;7.626;2023-02-28T01:06:46;20.50;70.10
2363;DHT22;64265;51.664;7.626;2023-02-28T01:09:12;20.50;70.10
2363;DHT22;64265;51.664;7.626;2023-02-28T01:11:41;20.50;70.20
2363;DHT22;64265;51.664;7.626;2023-02-28T01:14:12;20.50;70.10
2363;DHT22;64265;51.664;7.626;2023-02-28T01:16:39;20.50;70.10
2363;DHT22;64265;51.664;7.626;2023-02-28T01:19:06;20.50;70.10
2363;DHT22;64265;51.664;7.626;2023-02-28T01:21:33;20.50;70.00
2363;DHT22;64265;51.664;7.626;2023-02-28T01:24:01;20.50;70.00
2363;DHT22;64265;51.664;7.626;2023-02-28T01:26:27;20.50;70.10
2363;DHT22;64265;51.664;7.626;2023-02-28T01:28:56;20.40;70.00
2363;DHT22;64265;51.664;7.626;2023-02-28T01:31:23;20.40;69.90
2363;DHT22;64265;51.664;7.626;2023-02-28T01:33:50;20.40;70.00
2363;DHT22;64265;51.664;7.626;2023-02-28T01:36:18;20.40;69.90
2363;DHT22;64265;51.664;7.626;2023-02-28T01:38:46;20.40;69.80
2363;DHT22;64265;51.664;7.626;2023-02-28T01:41:16;20.40;69.90
2363;DHT22;64265;51.664;7.626;2023-02-28T01:44:03;20.40;69.90
2363;DHT22;64265;51.664;7.626;2023-02-28T01:46:31;20.40;69.80
2363;DHT22;64265;51.664;7.626;2023-02-28T01:49:02;20.40;69.80
2363;DHT22;64265;51.664;7.626;2023-02-28T01:51:34;20.40;69.80
2363;DHT22;64265;51.664;7.626;2023-02-28T01:54:09;20.40;69.80
2363;DHT22;64265;51.664;7.626;2023-02-28T01:56:41;20.40;69.80
2363;DHT22;64265;51.664;7.626;2023-02-28T01:59:12;20.40;69.80
2363;DHT22;64265;51.664;7.626;2023-02-28T02:01:40;20.40;69.80
2363;DHT22;64265;51.664;7.626;2023-02-28T02:04:06;20.40;69.80
2363;DHT22;64265;51.664;7.626;2023-02-28T02:06:37;20.40;69.80
2363;DHT22;64265;51.664;7.626;2023-02-28T02:09:03;20.40;69.80
2363;DHT22;64265;51.664;7.626;2023-02-28T02:11:31;20.40;69.80
2363;DHT22;64265;51.664;7.626;2023-02-28T02:14:17;20.40;69.80
2363;DHT22;64265;51.664;7.626;2023-02-28T02:16:59;20.40;69.80
2363;DHT22;64265;51.664;7.626;2023-02-28T02:23:01;20.30;69.70
2363;DHT22;64265;51.664;7.626;2023-02-28T02:25:31;20.30;69.60
2363;DHT22;64265;51.664;7.626;2023-02-28T02:28:34;20.30;69.60
2363;DHT22;64265;51.664;7.626;2023-02-28T02:31:30;20.30;69.60
2363;DHT22;64265;51.664;7.626;2023-02-28T02:34:27;20.30;69.60
2363;DHT22;64265;51.664;7.626;2023-02-28T02:37:02;20.30;70.40
2363;DHT22;64265;51.664;7.626;2023-02-28T02:39:36;20.30;69.60
2363;DHT22;64265;51.664;7.626;2023-02-28T02:42:14;20.30;69.60
2363;DHT22;64265;51.664;7.626;2023-02-28T02:44:46;20.30;69.60
2363;DHT22;64265;51.664;7.626;2023-02-28T02:47:17;20.30;69.60
2363;DHT22;64265;51.664;7.626;2023-02-28T02:49:48;20.30;69.60
2363;DHT22;64265;51.664;7.626;2023-02-28T02:52:20;20.30;69.60
2363;DHT22;64265;51.664;7.626;2023-02-28T02:54:49;20.30;69.60
2363;DHT22;64265;51.664;7.626;2023-02-28T02:57:22;20.30;69.60
2363;DHT22;64265;51.664;7.626;2023-02-28T02:59:50;20.30;69.60
2363;DHT22;64265;51.664;7.626;2023-02-28T03:02:21;20.30;69.60
2363;DHT22;64265;51.664;7.626;2023-02-28T03:04:52;20.30;69.60
2363;DHT22;64265;51.664;7.626;2023-02-28T03:07:20;20.30;69.60
2363;DHT22;64265;51.664;7.626;2023-02-28T03:09:51;20.30;69.50
2363;DHT22;64265;51.664;7.626;2023-02-28T03:12:19;20.30;69.50
2363;DHT22;64265;51.664;7.626;2023-02-28T03:14:56;20.30;69.60
2363;DHT22;64265;51.664;7.626;2023-02-28T03:17:31;20.20;69.50
2363;DHT22;64265;51.664;7.626;2023-02-28T03:20:07;20.20;69.50
2363;DHT22;64265;51.664;7.626;2023-02-28T03:22:46;20.20;69.40
2363;DHT22;64265;51.664;7.626;2023-02-28T03:25:22;20.20;69.40
2363;DHT22;64265;51.664;7.626;2023-02-28T03:27:59;20.20;69.50
2363;DHT22;64265;51.664;7.626;2023-02-28T03:30:33;20.20;69.50
2363;DHT22;64265;51.664;7.626;2023-02-28T03:33:05;20.20;69.40
2363;DHT22;64265;51.664;7.626;2023-02-28T03:35:37;20.20;69.50
2363;DHT22;64265;51.664;7.626;2023-02-28T03:38:10;20.20;69.40
2363;DHT22;64265;51.664;7.626;2023-02-28T04:17:44;20.10;69.20
2363;DHT22;64265;51.664;7.626;2023-02-28T04:20:11;20.10;69.20
2363;DHT22;64265;51.664;7.626;2023-02-28T04:22:38;20.10;70.00
2363;DHT22;64265;51.664;7.626;2023-02-28T04:25:06;20.10;69.20
2363;DHT22;64265;51.664;7.626;2023-02-28T04:27:33;20.10;69.20
2363;DHT22;64265;51.664;7.626;2023-02-28T04:30:00;20.10;69.20
2363;DHT22;64265;51.664;7.626;2023-02-28T04:32:27;20.10;69.20
2363;DHT22;64265;51.664;7.626;2023-02-28T04:34:55;20.10;69.20
2363;DHT22;64265;51.664;7.626;2023-02-28T04:37:21;20.10;69.20
2363;DHT22;64265;51.664;7.626;2023-02-28T04:39:53;20.10;69.20
2363;DHT22;64265;51.664;7.626;2023-02-28T04:42:20;20.10;69.10
2363;DHT22;64265;51.664;7.626;2023-02-28T04:44:46;20.10;69.10
2363;DHT22;64265;51.664;7.626;2023-02-28T04:47:13;20.10;69.00
2363;DHT22;64265;51.664;7.626;2023-02-28T04:49:40;20.10;69.10
2363;DHT22;64265;51.664;7.626;2023-02-28T04:52:09;20.10;69.10
2363;DHT22;64265;51.664;7.626;2023-02-28T04:54:36;20.10;69.20
2363;DHT22;64265;51.664;7.626;2023-02-28T04:57:04;20.10;69.20
2363;DHT22;64265;51.664;7.626;2023-02-28T04:59:31;20.10;69.20
2363;DHT22;64265;51.664;7.626;2023-02-28T05:01:58;20.10;69.20
2363;DHT22;64265;51.664;7.626;2023-02-28T05:04:24;20.10;69.20
2363;DHT22;64265;51.664;7.626;2023-02-28T05:06:51;20.10;69.20
2363;DHT22;64265;51.664;7.626;2023-02-28T05:09:19;20.10;69.30
2363;DHT22;64265;51.664;7.626;2023-02-28T05:11:46;20.10;69.30
2363;DHT22;64265;51.664;7.626;2023-02-28T05:14:14;20.10;69.30
2363;DHT22;64265;51.664;7.626;2023-02-28T05:16:40;20.10;69.30
2363;DHT22;64265;51.664;7.626;2023-02-28T05:19:07;20.10;69.30
2363;DHT22;64265;51.664;7.626;2023-02-28T05:21:35;20.10;69.40
2363;DHT22;64265;51.664;7.626;2023-02-28T05:24:04;20.10;69.30
2363;DHT22;64265;51.664;7.626;2023-02-28T05:26:35;20.10;69.40
2363;DHT22;64265;51.664;7.626;2023-02-28T05:29:02;20.10;69.40
2363;DHT22;64265;51.664;7.626;2023-02-28T05:31:28;20.10;69.40
2363;DHT22;64265;51.664;7.626;2023-02-28T05:33:55;20.10;69.40
2363;DHT22;64265;51.664;7.626;2023-02-28T05:36:22;20.10;70.30
2363;DHT22;64265;51.664;7.626;2023-02-28T05:38:49;20.10;69.40
2363;DHT22;64265;51.664;7.626;2023-02-28T05:41:17;20.10;69.40
2363;DHT22;64265;51.664;7.626;2023-02-28T05:43:46;20.10;69.40
2363;DHT22;64265;51.664;7.626;2023-02-28T05:46:13;20.10;69.40
2363;DHT22;64265;51.664;7.626;2023-02-28T05:48:41;20.10;69.40
2363;DHT22;64265;51.664;7.626;2023-02-28T05:51:08;20.10;69.50
2363;DHT22;64265;51.664;7.626;2023-02-28T05:53:35;20.10;69.40
2363;DHT22;64265;51.664;7.626;2023-02-28T05:56:02;20.10;70.20
2363;DHT22;64265;51.664;7.626;2023-02-28T05:58:29;20.10;69.50
2363;DHT22;64265;51.664;7.626;2023-02-28T06:00:59;20.10;69.40
2363;DHT22;64265;51.664;7.626;2023-02-28T06:03:26;20.10;69.40
2363;DHT22;64265;51.664;7.626;2023-02-28T06:05:53;20.10;69.40
2363;DHT22;64265;51.664;7.626;2023-02-28T06:08:19;20.10;69.40
2363;DHT22;64265;51.664;7.626;2023-02-28T06:10:46;20.10;69.40
2363;DHT22;64265;51.664;7.626;2023-02-28T06:13:13;20.10;69.40
2363;DHT22;64265;51.664;7.626;2023-02-28T06:15:40;20.10;69.40
2363;DHT22;64265;51.664;7.626;2023-02-28T06:18:08;20.10;69.40
2363;DHT22;64265;51.664;7.626;2023-02-28T06:20:35;20.10;69.40
2363;DHT22;64265;51.664;7.626;2023-02-28T06:23:01;20.10;69.40
2363;DHT22;64265;51.664;7.626;2023-02-28T06:25:28;20.10;69.40
2363;DHT22;64265;51.664;7.626;2023-02-28T06:27:55;20.10;70.20
2363;DHT22;64265;51.664;7.626;2023-02-28T06:30:22;20.10;69.40
2363;DHT22;64265;51.664;7.626;2023-02-28T06:32:52;20.10;69.40
2363;DHT22;64265;51.664;7.626;2023-02-28T06:35:21;20.10;69.40
2363;DHT22;64265;51.664;7.626;2023-02-28T06:37:48;20.10;69.40
2363;DHT22;64265;51.664;7.626;2023-02-28T06:40:15;20.10;69.30
2363;DHT22;64265;51.664;7.626;2023-02-28T06:42:42;20.10;69.40
2363;DHT22;64265;51.664;7.626;2023-02-28T06:45:09;20.10;69.30
2363;DHT22;64265;51.664;7.626;2023-02-28T06:47:37;20.10;69.40
2363;DHT22;64265;51.664;7.626;2023-02-28T06:50:05;20.10;69.40
2363;DHT22;64265;51.664;7.626;2023-02-28T06:52:33;20.10;69.40
2363;DHT22;64265;51.664;7.626;2023-02-28T06:55:01;20.10;69.50
2363;DHT22;64265;51.664;7.626;2023-02-28T06:57:29;20.10;69.50
2363;DHT22;64265;51.664;7.626;2023-02-28T06:59:57;20.10;69.60
2363;DHT22;64265;51.664;7.626;2023-02-28T07:02:24;20.10;69.40
2363;DHT22;64265;51.664;7.626;2023-02-28T07:04:50;20.10;69.40
2363;DHT22;64265;51.664;7.626;2023-02-28T07:07:17;20.10;69.30
2363;DHT22;64265;51.664;7.626;2023-02-28T07:09:45;20.10;68.40
2363;DHT22;64265;51.664;7.626;2023-02-28T07:12:12;20.10;68.30
2363;DHT22;64265;51.664;7.626;2023-02-28T07:14:39;20.10;68.60
2363;DHT22;64265;51.664;7.626;2023-02-28T07:17:06;20.10;68.80
2363;DHT22;64265;51.664;7.626;2023-02-28T07:19:33;20.10;68.90
2363;DHT22;64265;51.664;7.626;2023-02-28T07:22:00;20.10;69.00
2363;DHT22;64265;51.664;7.626;2023-02-28T07:24:28;20.10;69.80
2363;DHT22;64265;51.664;7.626;2023-02-28T07:26:56;20.10;69.00
2363;DHT22;64265;51.664;7.626;2023-02-28T07:29:23;20.20;69.10
2363;DHT22;64265;51.664;7.626;2023-02-28T07:31:49;20.20;69.20
2363;DHT22;64265;51.664;7.626;2023-02-28T07:34:18;20.20;69.30
2363;DHT22;64265;51.664;7.626;2023-02-28T07:36:45;20.30;69.40
2363;DHT22;64265;51.664;7.626;2023-02-28T07:39:11;20.30;69.50
2363;DHT22;64265;51.664;7.626;2023-02-28T07:41:38;20.30;69.60
2363;DHT22;64265;51.664;7.626;2023-02-28T07:44:10;20.30;69.60
2363;DHT22;64265;51.664;7.626;2023-02-28T07:46:38;20.40;69.80
2363;DHT22;64265;51.664;7.626;2023-02-28T07:49:05;20.40;69.90
2363;DHT22;64265;51.664;7.626;2023-02-28T07:51:32;20.40;70.00
2363;DHT22;64265;51.664;7.626;2023-02-28T07:53:58;20.40;70.00
2363;DHT22;64265;51.664;7.626;2023-02-28T07:56:25;20.40;70.00
2363;DHT22;64265;51.664;7.626;2023-02-28T07:58:52;20.40;70.10
2363;DHT22;64265;51.664;7.626;2023-02-28T08:01:20;20.40;70.20
2363;DHT22;64265;51.664;7.626;2023-02-28T08:03:47;20.40;70.20
2363;DHT22;64265;51.664;7.626;2023-02-28T08:06:20;20.50;71.10
2363;DHT22;64265;51.664;7.626;2023-02-28T08:08:48;20.50;70.40
2363;DHT22;64265;51.664;7.626;2023-02-28T08:11:16;20.50;70.40
2363;DHT22;64265;51.664;7.626;2023-02-28T08:13:43;20.50;70.40
2363;DHT22;64265;51.664;7.626;2023-02-28T08:16:11;20.50;70.40
2363;DHT22;64265;51.664;7.626;2023-02-28T08:18:41;20.50;70.30
2363;DHT22;64265;51.664;7.626;2023-02-28T08:21:08;20.60;70.50
2363;DHT22;64265;51.664;7.626;2023-02-28T08:23:34;20.60;70.60
2363;DHT22;64265;51.664;7.626;2023-02-28T08:26:02;20.60;70.60
2363;DHT22;64265;51.664;7.626;2023-02-28T08:28:29;20.60;70.60
2363;DHT22;64265;51.664;7.626;2023-02-28T08:30:56;20.60;70.60
2363;DHT22;64265;51.664;7.626;2023-02-28T08:33:24;20.60;71.40
2363;DHT22;64265;51.664;7.626;2023-02-28T08:35:54;20.70;70.70
2363;DHT22;64265;51.664;7.626;2023-02-28T08:38:21;20.60;70.30
2363;DHT22;64265;51.664;7.626;2023-02-28T08:40:48;20.60;70.30
2363;DHT22;64265;51.664;7.626;2023-02-28T08:43:14;20.60;70.30
2363;DHT22;64265;51.664;7.626;2023-02-28T08:45:41;20.60;70.40
2363;DHT22;64265;51.664;7.626;2023-02-28T08:48:08;20.60;70.40
2363;DHT22;64265;51.664;7.626;2023-02-28T08:50:35;20.60;70.40
2363;DHT22;64265;51.664;7.626;2023-02-28T08:53:03;20.60;70.70
2363;DHT22;64265;51.664;7.626;2023-02-28T08:55:30;20.60;70.40
2363;DHT22;64265;51.664;7.626;2023-02-28T08:57:56;20.60;70.60
2363;DHT22;64265;51.664;7.626;2023-02-28T09:00:23;20.60;70.20
2363;DHT22;64265;51.664;7.626;2023-02-28T09:02:50;20.60;70.20
2363;DHT22;64265;51.664;7.626;2023-02-28T09:05:17;20.60;70.20
2363;DHT22;64265;51.664;7.626;2023-02-28T09:07:43;20.60;70.20
2363;DHT22;64265;51.664;7.626;2023-02-28T09:10:12;20.60;70.10
2363;DHT22;64265;51.664;7.626;2023-02-28T09:12:38;20.60;70.10
2363;DHT22;64265;51.664;7.626;2023-02-28T09:15:06;20.60;70.20
2363;DHT22;64265;51.664;7.626;2023-02-28T09:17:33;20.60;71.00
2363;DHT22;64265;51.664;7.626;2023-02-28T09:20:00;20.60;70.10
2363;DHT22;64265;51.664;7.626;2023-02-28T09:22:26;20.60;70.10
2363;DHT22;64265;51.664;7.626;2023-02-28T09:24:53;20.60;70.00
2363;DHT22;64265;51.664;7.626;2023-02-28T09:27:21;20.70;70.10
2363;DHT22;64265;51.664;7.626;2023-02-28T09:29:48;20.70;70.10
2363;DHT22;64265;51.664;7.626;2023-02-28T09:32:15;20.70;70.00
2363;DHT22;64265;51.664;7.626;2023-02-28T09:34:43;20.70;69.90
2363;DHT22;64265;51.664;7.626;2023-02-28T09:37:10;20.70;69.90
2363;DHT22;64265;51.664;7.626;2023-02-28T09:39:36;20.70;69.90
2363;DHT22;64265;51.664;7.626;2023-02-28T09:42:04;20.70;69.80
2363;DHT22;64265;51.664;7.626;2023-02-28T09:44:37;20.80;69.80
2363;DHT22;64265;51.664;7.626;2023-02-28T09:47:10;20.80;69.70
2363;DHT22;64265;51.664;7.626;2023-02-28T09:49:40;20.80;69.80
2363;DHT22;64265;51.664;7.626;2023-02-28T09:52:10;20.80;69.70
2363;DHT22;64265;51.664;7.626;2023-02-28T09:54:38;20.80;69.60
2363;DHT22;64265;51.664;7.626;2023-02-28T09:57:07;20.80;69.60
2363;DHT22;64265;51.664;7.626;2023-02-28T10:00:03;20.70;69.40
2363;DHT22;64265;51.664;7.626;2023-02-28T10:02:48;20.70;69.40
2363;DHT22;64265;51.664;7.626;2023-02-28T10:05:21;20.70;69.40
2363;DHT22;64265;51.664;7.626;2023-02-28T10:07:56;20.70;69.30
2363;DHT22;64265;51.664;7.626;2023-02-28T10:10:28;20.70;69.30
2363;DHT22;64265;51.664;7.626;2023-02-28T10:12:58;20.70;69.20
2363;DHT22;64265;51.664;7.626;2023-02-28T10:15:30;20.70;69.20
2363;DHT22;64265;51.664;7.626;2023-02-28T10:18:00;20.70;69.10
2363;DHT22;64265;51.664;7.626;2023-02-28T10:20:30;20.60;68.90
2363;DHT22;64265;51.664;7.626;2023-02-28T10:23:04;20.60;68.90
2363;DHT22;64265;51.664;7.626;2023-02-28T10:25:35;20.60;68.90
2363;DHT22;64265;51.664;7.626;2023-02-28T10:28:10;20.40;68.90
2363;DHT22;64265;51.664;7.626;2023-02-28T10:30:41;20.50;69.00
2363;DHT22;64265;51.664;7.626;2023-02-28T10:33:17;20.50;69.00
2363;DHT22;64265;51.664;7.626;2023-02-28T10:35:45;20.50;69.10
2363;DHT22;64265;51.664;7.626;2023-02-28T10:38:16;20.50;68.90
2363;DHT22;64265;51.664;7.626;2023-02-28T10:40:43;20.50;68.70
2363;DHT22;64265;51.664;7.626;2023-02-28T10:43:20;20.60;68.80
2363;DHT22;64265;51.664;7.626;2023-02-28T10:45:57;20.60;69.60
2363;DHT22;64265;51.664;7.626;2023-02-28T10:48:30;20.60;68.80
2363;DHT22;64265;51.664;7.626;2023-02-28T10:50:58;20.70;69.00
2363;DHT22;64265;51.664;7.626;2023-02-28T10:53:31;20.70;68.90
2363;DHT22;64265;51.664;7.626;2023-02-28T10:56:01;20.70;69.00
2363;DHT22;64265;51.664;7.626;2023-02-28T10:58:29;20.80;69.10
2363;DHT22;64265;51.664;7.626;2023-02-28T11:00:59;20.80;69.20
2363;DHT22;64265;51.664;7.626;2023-02-28T11:03:31;20.80;69.20
2363;DHT22;64265;51.664;7.626;2023-02-28T11:06:03;20.80;69.20
2363;DHT22;64265;51.664;7.626;2023-02-28T11:08:30;20.80;69.20
2363;DHT22;64265;51.664;7.626;2023-02-28T11:11:00;20.80;69.30
2363;DHT22;64265;51.664;7.626;2023-02-28T11:13:32;20.80;69.30
2363;DHT22;64265;51.664;7.626;2023-02-28T11:16:03;20.80;69.30
2363;DHT22;64265;51.664;7.626;2023-02-28T11:18:36;20.80;69.40
2363;DHT22;64265;51.664;7.626;2023-02-28T11:21:04;20.80;69.40
2363;DHT22;64265;51.664;7.626;2023-02-28T11:23:34;20.80;69.40
2363;DHT22;64265;51.664;7.626;2023-02-28T11:26:03;20.80;69.40
2363;DHT22;64265;51.664;7.626;2023-02-28T11:28:36;20.80;69.40
2363;DHT22;64265;51.664;7.626;2023-02-28T11:31:14;20.80;69.50
2363;DHT22;64265;51.664;7.626;2023-02-28T11:33:43;20.80;69.50
2363;DHT22;64265;51.664;7.626;2023-02-28T11:36:12;20.80;69.40
2363;DHT22;64265;51.664;7.626;2023-02-28T11:38:40;20.80;69.50
2363;DHT22;64265;51.664;7.626;2023-02-28T11:41:28;20.80;69.40
2363;DHT22;64265;51.664;7.626;2023-02-28T11:44:19;20.80;69.50
2363;DHT22;64265;51.664;7.626;2023-02-28T11:46:50;20.80;69.50
2363;DHT22;64265;51.664;7.626;2023-02-28T11:49:28;20.80;69.60
2363;DHT22;64265;51.664;7.626;2023-02-28T11:52:00;20.80;69.50
2363;DHT22;64265;51.664;7.626;2023-02-28T11:54:41;20.80;69.50
2363;DHT22;64265;51.664;7.626;2023-02-28T11:57:25;20.80;69.60
2363;DHT22;64265;51.664;7.626;2023-02-28T12:00:01;20.80;69.60
2363;DHT22;64265;51.664;7.626;2023-02-28T12:02:35;20.80;69.60
2363;DHT22;64265;51.664;7.626;2023-02-28T12:05:22;20.80;69.60
2363;DHT22;64265;51.664;7.626;2023-02-28T12:08:00;20.80;69.50
2363;DHT22;64265;51.664;7.626;2023-02-28T12:10:30;20.80;69.50
2363;DHT22;64265;51.664;7.626;2023-02-28T12:13:11;20.80;69.60
2363;DHT22;64265;51.664;7.626;2023-02-28T12:16:00;20.80;69.60
2363;DHT22;64265;51.664;7.626;2023-02-28T12:18:48;20.90;69.70
2363;DHT22;64265;51.664;7.626;2023-02-28T12:21:24;20.90;69.70
2363;DHT22;64265;51.664;7.626;2023-02-28T12:24:07;20.90;69.70
2363;DHT22;64265;51.664;7.626;2023-02-28T12:26:41;20.90;70.50
2363;DHT22;64265;51.664;7.626;2023-02-28T12:29:14;20.90;69.60
2363;DHT22;64265;51.664;7.626;2023-02-28T12:31:47;20.90;69.60
2363;DHT22;64265;51.664;7.626;2023-02-28T12:34:20;20.90;69.60
2363;DHT22;64265;51.664;7.626;2023-02-28T12:36:48;20.90;69.60
2363;DHT22;64265;51.664;7.626;2023-02-28T12:39:19;20.90;69.60
2363;DHT22;64265;51.664;7.626;2023-02-28T12:41:50;20.90;69.60
2363;DHT22;64265;51.664;7.626;2023-02-28T12:44:21;20.90;69.60
2363;DHT22;64265;51.664;7.626;2023-02-28T12:46:51;20.90;69.60
2363;DHT22;64265;51.664;7.626;2023-02-28T12:49:25;20.90;69.60
2363;DHT22;64265;51.664;7.626;2023-02-28T12:51:53;20.90;69.50
2363;DHT22;64265;51.664;7.626;2023-02-28T12:54:24;20.90;69.50
2363;DHT22;64265;51.664;7.626;2023-02-28T12:56:58;20.90;69.50
2363;DHT22;64265;51.664;7.626;2023-02-28T12:59:34;20.90;69.60
2363;DHT22;64265;51.664;7.626;2023-02-28T13:02:43;20.90;69.50
2363;DHT22;64265;51.664;7.626;2023-02-28T13:05:29;20.90;69.60
2363;DHT22;64265;51.664;7.626;2023-02-28T13:08:22;20.90;69.50
2363;DHT22;64265;51.664;7.626;2023-02-28T13:10:52;20.90;69.60
2363;DHT22;64265;51.664;7.626;2023-02-28T13:13:21;20.90;69.60
2363;DHT22;64265;51.664;7.626;2023-02-28T13:16:02;20.90;69.60
2363;DHT22;64265;51.664;7.626;2023-02-28T13:18:33;20.90;69.60
2363;DHT22;64265;51.664;7.626;2023-02-28T13:21:03;20.90;69.50
2363;DHT22;64265;51.664;7.626;2023-02-28T13:23:41;20.90;69.50
2363;DHT22;64265;51.664;7.626;2023-02-28T13:29:30;20.90;69.60
2363;DHT22;64265;51.664;7.626;2023-02-28T13:32:31;20.90;69.50
2363;DHT22;64265;51.664;7.626;2023-02-28T13:38:17;20.90;69.60
2363;DHT22;64265;51.664;7.626;2023-02-28T13:40:47;20.80;69.30
2363;DHT22;64265;51.664;7.626;2023-02-28T13:43:17;20.70;68.70
2363;DHT22;64265;51.664;7.626;2023-02-28T13:46:06;20.60;68.50
2363;DHT22;64265;51.664;7.626;2023-02-28T13:48:34;20.60;68.40
2363;DHT22;64265;51.664;7.626;2023-02-28T13:51:38;20.60;68.10
2363;DHT22;64265;51.664;7.626;2023-02-28T13:54:19;20.50;67.60
2363;DHT22;64265;51.664;7.626;2023-02-28T13:56:57;20.50;67.70
2363;DHT22;64265;51.664;7.626;2023-02-28T13:59:31;20.50;67.80
2363;DHT22;64265;51.664;7.626;2023-02-28T14:02:30;20.50;67.50
2363;DHT22;64265;51.664;7.626;2023-02-28T14:05:02;20.50;67.50
2363;DHT22;64265;51.664;7.626;2023-02-28T14:07:36;20.50;67.40
2363;DHT22;64265;51.664;7.626;2023-02-28T14:10:08;20.50;67.20
2363;DHT22;64265;51.664;7.626;2023-02-28T14:12:58;20.50;66.90
2363;DHT22;64265;51.664;7.626;2023-02-28T14:15:47;20.60;66.80
2363;DHT22;64265;51.664;7.626;2023-02-28T14:18:23;20.70;67.00
2363;DHT22;64265;51.664;7.626;2023-02-28T14:21:01;20.80;67.00
2363;DHT22;64265;51.664;7.626;2023-02-28T14:26:56;20.80;67.10
2363;DHT22;64265;51.664;7.626;2023-02-28T14:32:34;20.90;67.30
2363;DHT22;64265;51.664;7.626;2023-02-28T14:35:10;20.90;67.50
2363;DHT22;64265;51.664;7.626;2023-02-28T14:37:41;20.90;67.60
2363;DHT22;64265;51.664;7.626;2023-02-28T14:40:14;20.90;67.70
2363;DHT22;64265;51.664;7.626;2023-02-28T14:42:47;20.90;67.70
2363;DHT22;64265;51.664;7.626;2023-02-28T14:45:18;20.90;67.70
2363;DHT22;64265;51.664;7.626;2023-02-28T14:47:45;20.90;67.80
2363;DHT22;64265;51.664;7.626;2023-02-28T14:50:18;20.90;68.70
2363;DHT22;64265;51.664;7.626;2023-02-28T14:52:45;20.90;68.00
2363;DHT22;64265;51.664;7.626;2023-02-28T14:55:15;20.80;67.90
2363;DHT22;64265;51.664;7.626;2023-02-28T14:57:51;20.90;68.10
2363;DHT22;64265;51.664;7.626;2023-02-28T15:00:23;20.90;68.10
2363;DHT22;64265;51.664;7.626;2023-02-28T15:02:50;20.90;68.20
2363;DHT22;64265;51.664;7.626;2023-02-28T15:05:26;20.90;68.40
2363;DHT22;64265;51.664;7.626;2023-02-28T15:08:06;20.80;68.30
2363;DHT22;64265;51.664;7.626;2023-02-28T15:10:37;20.80;68.40
2363;DHT22;64265;51.664;7.626;2023-02-28T15:13:10;20.90;68.50
2363;DHT22;64265;51.664;7.626;2023-02-28T15:15:44;20.90;68.50
2363;DHT22;64265;51.664;7.626;2023-02-28T15:18:16;20.80;68.50
2363;DHT22;64265;51.664;7.626;2023-02-28T15:20:45;20.80;68.60
2363;DHT22;64265;51.664;7.626;2023-02-28T15:23:12;20.80;68.70
2363;DHT22;64265;51.664;7.626;2023-02-28T15:25:41;20.80;68.70
2363;DHT22;64265;51.664;7.626;2023-02-28T15:28:15;20.80;68.80
2363;DHT22;64265;51.664;7.626;2023-02-28T15:30:52;20.80;68.80
2363;DHT22;64265;51.664;7.626;2023-02-28T15:33:21;20.80;68.80
2363;DHT22;64265;51.664;7.626;2023-02-28T15:35:49;20.80;68.80
2363;DHT22;64265;51.664;7.626;2023-02-28T15:38:21;20.90;69.00
2363;DHT22;64265;51.664;7.626;2023-02-28T15:40:51;20.80;68.90
2363;DHT22;64265;51.664;7.626;2023-02-28T15:43:25;20.90;69.00
2363;DHT22;64265;51.664;7.626;2023-02-28T15:45:56;20.90;69.10
2363;DHT22;64265;51.664;7.626;2023-02-28T15:48:25;20.90;69.20
2363;DHT22;64265;51.664;7.626;2023-02-28T15:50:55;20.90;69.20
2363;DHT22;64265;51.664;7.626;2023-02-28T15:53:24;20.90;69.20
2363;DHT22;64265;51.664;7.626;2023-02-28T15:55:54;20.90;69.20
2363;DHT22;64265;51.664;7.626;2023-02-28T15:58:23;20.90;69.10
2363;DHT22;64265;51.664;7.626;2023-02-28T16:01:15;21.00;69.20
2363;DHT22;64265;51.664;7.626;2023-02-28T16:03:46;20.90;69.20
2363;DHT22;64265;51.664;7.626;2023-02-28T16:06:33;20.90;69.30
2363;DHT22;64265;51.664;7.626;2023-02-28T16:09:00;20.90;69.30
2363;DHT22;64265;51.664;7.626;2023-02-28T16:11:27;20.90;69.40
2363;DHT22;64265;51.664;7.626;2023-02-28T16:13:55;20.90;69.30
2363;DHT22;64265;51.664;7.626;2023-02-28T16:16:24;20.90;69.20
2363;DHT22;64265;51.664;7.626;2023-02-28T16:18:51;20.90;69.30
2363;DHT22;64265;51.664;7.626;2023-02-28T16:21:18;20.90;69.40
2363;DHT22;64265;51.664;7.626;2023-02-28T16:23:45;20.90;70.30
2363;DHT22;64265;51.664;7.626;2023-02-28T16:26:19;20.90;69.50
2363;DHT22;64265;51.664;7.626;2023-02-28T16:28:47;20.90;70.40
2363;DHT22;64265;51.664;7.626;2023-02-28T16:31:15;20.90;69.70
2363;DHT22;64265;51.664;7.626;2023-02-28T16:33:43;20.90;69.80
2363;DHT22;64265;51.664;7.626;2023-02-28T16:36:14;20.80;69.80
2363;DHT22;64265;51.664;7.626;2023-02-28T16:38:41;20.80;69.90
2363;DHT22;64265;51.664;7.626;2023-02-28T16:41:12;20.80;70.00
2363;DHT22;64265;51.664;7.626;2023-02-28T16:43:42;20.90;70.30
2363;DHT22;64265;51.664;7.626;2023-02-28T16:46:11;20.80;70.30
2363;DHT22;64265;51.664;7.626;2023-02-28T16:48:40;20.80;70.40
2363;DHT22;64265;51.664;7.626;2023-02-28T16:51:10;20.80;70.40
2363;DHT22;64265;51.664;7.626;2023-02-28T16:53:37;20.80;70.50
2363;DHT22;64265;51.664;7.626;2023-02-28T16:56:05;20.80;70.50
2363;DHT22;64265;51.664;7.626;2023-02-28T16:58:33;20.80;70.70
2363;DHT22;64265;51.664;7.626;2023-02-28T17:01:01;20.80;70.60